Time;durP1;ratioP1;P1;durP2;ratioP2;P2;SDS_P1;SDS_P2;PMS_P1;PMS_P2;Temp;Humidity;BMP_temperature;BMP_pressure;BME280_temperature;BME280_humidity;BME280_pressure;Samples;Min_cycle;Max_cycle;Signal;HPM_P1;HPM_P2
2022/01/28 00:01:08;;;;;;;15.80;10.47;;;;;;;2.06;86.13;98224.64;2280655;78;21404;-82
2022/01/28 00:04:13;;;;;;;17.77;10.73;;;;;;;2.07;86.17;98223.81;2281530;78;21001;-82
2022/01/28 00:07:13;;;;;;;18.43;12.13;;;;;;;2.10;86.23;98222.64;2280267;78;20973;-82
2022/01/28 00:10:14;;;;;;;16.07;10.80;;;;;;;2.13;86.14;98212.45;2281535;78;21318;-82
2022/01/28 00:13:32;;;;;;;17.53;11.10;;;;;;;2.13;86.13;98209.87;2280780;78;21340;-82
2022/01/28 00:16:54;;;;;;;14.67;10.30;;;;;;;2.11;86.27;98208.53;2279682;78;21252;-83
2022/01/28 00:39:23;;;;;;;17.70;9.90;;;;;;;2.04;87.46;98178.25;2249948;77;21023;-83
2022/01/28 00:42:24;;;;;;;12.77;8.97;;;;;;;2.04;87.74;98173.52;2247577;79;20979;-83
2022/01/28 00:45:25;;;;;;;13.10;8.80;;;;;;;2.04;87.64;98174.80;2248391;78;21018;-83
2022/01/28 00:48:25;;;;;;;14.00;9.07;;;;;;;2.05;87.74;98183.86;2247951;78;20963;-83
2022/01/28 00:51:26;;;;;;;13.17;9.13;;;;;;;2.07;87.62;98167.18;2247866;78;20978;-82
2022/01/28 00:54:26;;;;;;;13.07;8.30;;;;;;;2.11;87.44;98178.05;2247723;78;21052;-82
2022/01/28 00:57:27;;;;;;;9.13;6.83;;;;;;;2.13;87.30;98181.55;2247955;78;21374;-83
2022/01/28 01:00:27;;;;;;;12.60;8.77;;;;;;;2.17;87.20;98176.97;2247538;78;20987;-83
2022/01/28 01:03:28;;;;;;;13.77;8.47;;;;;;;2.20;87.31;98178.36;2249216;78;20956;-83
2022/01/28 01:06:28;;;;;;;13.63;8.90;;;;;;;2.19;87.25;98183.92;2249160;78;20975;-81
2022/01/28 01:09:29;;;;;;;9.40;7.60;;;;;;;2.21;87.22;98175.84;2249640;78;20905;-81
2022/01/28 01:12:31;;;;;;;11.80;8.70;;;;;;;2.21;87.09;98176.25;2249775;78;20962;-81
2022/01/28 01:15:36;;;;;;;10.73;7.27;;;;;;;2.18;86.93;98162.86;2249798;79;20996;-81
2022/01/28 01:21:40;;;;;;;9.67;6.80;;;;;;;2.18;86.94;98168.42;2227723;79;21012;-82
2022/01/28 01:24:48;;;;;;;9.07;6.93;;;;;;;2.18;86.74;98156.83;2249747;78;21067;-82
2022/01/28 01:27:41;;;;;;;12.03;7.60;;;;;;;2.20;86.73;98157.76;2248675;79;20999;-84
2022/01/28 01:30:43;;;;;;;9.83;7.10;;;;;;;2.21;86.74;98167.23;2249812;79;20926;-82
2022/01/28 01:33:56;;;;;;;11.10;6.63;;;;;;;2.23;86.62;98152.71;2248980;79;21055;-82
2022/01/28 01:36:49;;;;;;;10.93;6.13;;;;;;;2.21;86.48;98156.52;2247184;77;21387;-84
2022/01/28 01:39:51;;;;;;;7.80;5.60;;;;;;;2.20;86.48;98129.44;2281163;78;20958;-83
2022/01/28 01:43:05;;;;;;;13.73;6.33;;;;;;;2.17;86.86;98142.21;2281784;78;21389;-84
2022/01/28 01:52:16;;;;;;;9.67;5.47;;;;;;;2.01;87.55;98162.70;2282181;77;20974;-78
2022/01/28 01:55:16;;;;;;;9.27;5.83;;;;;;;1.82;87.69;98161.19;2281213;77;21022;-77
2022/01/28 01:58:20;;;;;;;8.33;6.47;;;;;;;1.68;88.00;98159.80;2281691;77;21306;-77
2022/01/28 02:01:19;;;;;;;12.63;6.70;;;;;;;1.61;88.19;98146.25;2281742;78;21361;-83
2022/01/28 02:04:20;;;;;;;7.70;5.70;;;;;;;1.54;88.88;98147.73;2282110;77;20954;-82
2022/01/28 02:07:20;;;;;;;7.50;6.20;;;;;;;1.53;88.94;98151.53;2282305;77;21310;-83
2022/01/28 02:10:21;;;;;;;12.37;7.00;;;;;;;1.55;88.98;98142.17;2281142;78;21345;-82
2022/01/28 02:13:21;;;;;;;11.13;6.77;;;;;;;1.54;88.86;98133.98;2281244;77;20982;-82
2022/01/28 02:16:22;;;;;;;7.50;5.30;;;;;;;1.55;88.73;98135.74;2280791;77;20939;-83
2022/01/28 02:19:22;;;;;;;12.43;5.97;;;;;;;1.55;88.78;98133.17;2282113;77;20946;-82
2022/01/28 02:22:23;;;;;;;9.47;4.90;;;;;;;1.58;88.54;98121.70;2281969;77;20910;-82
2022/01/28 02:25:24;;;;;;;7.53;4.57;;;;;;;1.58;88.58;98118.72;2281490;78;21009;-77
2022/01/28 02:28:26;;;;;;;10.50;4.93;;;;;;;1.53;88.43;98100.97;2281622;78;20977;-83
2022/01/28 02:31:28;;;;;;;9.60;5.33;;;;;;;1.51;88.75;98106.47;2281883;77;20950;-82
2022/01/28 02:34:28;;;;;;;8.67;5.23;;;;;;;1.51;88.60;98101.32;2281729;77;20962;-82
2022/01/28 02:37:29;;;;;;;8.97;4.80;;;;;;;1.52;88.47;98103.48;2277422;77;21342;-81
2022/01/28 02:40:31;;;;;;;11.13;5.50;;;;;;;1.54;88.35;98106.58;2249663;79;21324;-82
2022/01/28 02:43:49;;;;;;;12.03;5.47;;;;;;;1.57;88.29;98095.11;2249636;79;21000;-83
2022/01/28 02:47:00;;;;;;;6.78;3.83;;;;;;;1.58;88.09;98095.56;2249176;79;21000;-79
2022/01/28 02:49:58;;;;;;;12.30;6.70;;;;;;;1.62;87.72;98082.81;2249478;78;21071;-80
2022/01/28 02:53:05;;;;;;;7.50;4.17;;;;;;;1.64;87.51;98096.61;2249643;79;20885;-83
2022/01/28 02:56:12;;;;;;;7.57;4.30;;;;;;;1.67;87.37;98096.70;2249489;79;20991;-83
2022/01/28 02:59:06;;;;;;;5.63;2.90;;;;;;;1.72;87.33;98105.05;2248807;79;21035;-80
2022/01/28 03:02:07;;;;;;;9.40;3.20;;;;;;;1.76;87.40;98097.94;2251033;78;20912;-83
2022/01/28 03:08:19;;;;;;;8.43;3.23;;;;;;;1.78;88.25;98087.28;2227740;79;20944;-82
2022/01/28 03:14:53;;;;;;;9.53;4.00;;;;;;;1.81;88.18;98072.36;2227522;79;20917;-82
2022/01/28 03:17:54;;;;;;;9.70;3.30;;;;;;;1.82;88.18;98076.68;2246723;79;20992;-80
2022/01/28 03:23:53;;;;;;;6.20;3.10;;;;;;;1.82;87.58;98075.39;2227278;79;20980;-83
2022/01/28 03:27:05;;;;;;;6.50;3.03;;;;;;;1.84;87.53;98069.89;2249126;78;20963;-82
2022/01/28 03:29:59;;;;;;;4.93;2.70;;;;;;;1.81;87.74;98089.09;2247995;79;21087;-81
2022/01/28 03:32:59;;;;;;;6.33;3.53;;;;;;;1.75;87.89;98078.17;2249093;79;21015;-83
2022/01/28 03:36:02;;;;;;;5.27;3.13;;;;;;;1.70;87.96;98076.23;2249737;78;20948;-80
2022/01/28 03:39:02;;;;;;;6.10;3.37;;;;;;;1.67;88.42;98068.41;2249206;77;21056;-82
2022/01/28 03:42:03;;;;;;;4.73;2.60;;;;;;;1.60;88.69;98060.89;2249919;78;20924;-81
2022/01/28 03:45:03;;;;;;;4.63;2.70;;;;;;;1.54;88.78;98061.56;2249473;78;20920;-81
2022/01/28 03:48:04;;;;;;;4.37;2.60;;;;;;;1.48;88.86;98044.63;2249277;78;20964;-81
2022/01/28 03:51:04;;;;;;;5.90;2.80;;;;;;;1.44;89.33;98056.92;2249665;78;20940;-80
2022/01/28 03:54:05;;;;;;;6.93;2.60;;;;;;;1.40;89.58;98051.20;2250123;78;21335;-83
2022/01/28 03:57:07;;;;;;;7.50;2.80;;;;;;;1.39;89.75;98047.30;2249757;78;21283;-80
2022/01/28 04:00:08;;;;;;;5.63;3.03;;;;;;;1.38;89.68;98049.00;2250099;79;21047;-82
2022/01/28 04:12:57;;;;;;;6.80;3.37;;;;;;;1.31;90.24;98053.87;2250273;78;20986;-80
2022/01/28 04:16:17;;;;;;;5.53;2.80;;;;;;;1.28;90.29;98050.78;2250586;78;20913;-80
2022/01/28 04:19:08;;;;;;;5.13;3.10;;;;;;;1.26;90.90;98046.87;2248123;79;21463;-80
2022/01/28 04:22:08;;;;;;;7.33;2.93;;;;;;;1.26;90.61;98043.02;2250413;79;21032;-79
2022/01/28 04:25:09;;;;;;;7.27;2.80;;;;;;;1.28;90.64;98053.34;2250364;78;20913;-80
2022/01/28 04:28:09;;;;;;;8.53;3.20;;;;;;;1.28;90.92;98058.49;2250186;78;20932;-80
2022/01/28 04:31:10;;;;;;;7.03;3.00;;;;;;;1.27;91.07;98060.19;2249681;78;20992;-79
2022/01/28 04:34:11;;;;;;;9.13;3.57;;;;;;;1.30;90.89;98063.69;2249572;78;20984;-80
2022/01/28 04:37:39;;;;;;;7.83;3.03;;;;;;;1.33;91.14;98059.94;2250017;78;20956;-79
2022/01/28 04:40:38;;;;;;;5.63;2.40;;;;;;;1.32;90.87;98067.19;2290058;77;21004;-79
2022/01/28 04:43:46;;;;;;;6.50;3.10;;;;;;;1.30;91.12;98058.55;2291170;77;20992;-79
2022/01/28 04:46:57;;;;;;;5.67;2.90;;;;;;;1.28;91.21;98070.94;2289098;77;21003;-79
2022/01/28 04:50:42;;;;;;;9.70;3.87;;;;;;;1.25;91.20;98062.23;2287996;78;21047;-79
2022/01/28 04:53:18;;;;;;;11.17;3.87;;;;;;;1.22;91.54;98066.86;2286025;78;21066;-79
2022/01/28 04:59:29;;;;;;;7.03;3.60;;;;;;;1.34;92.47;98073.27;2267418;78;21418;-78
2022/01/28 05:27:47;;;;;;;6.80;3.00;;;;;;;1.43;93.56;98081.30;2267642;78;21038;-79
2022/01/28 05:30:47;;;;;;;6.30;2.90;;;;;;;1.46;91.37;98080.12;2289798;78;21008;-80
2022/01/28 05:33:48;;;;;;;3.43;2.17;;;;;;;1.38;91.21;98091.42;2289902;78;20995;-80
2022/01/28 05:36:48;;;;;;;6.90;2.33;;;;;;;1.33;91.42;98101.08;2289737;78;21229;-80
2022/01/28 05:39:49;;;;;;;10.07;3.57;;;;;;;1.31;91.59;98114.29;2283214;78;20966;-79
2022/01/28 05:42:49;;;;;;;4.23;2.33;;;;;;;1.26;91.71;98102.55;2278567;78;21235;-81
2022/01/28 05:45:50;;;;;;;2.80;2.20;;;;;;;1.22;91.77;98120.85;2278578;77;20961;-80
2022/01/28 05:48:51;;;;;;;3.37;2.47;;;;;;;1.20;92.03;98121.20;2278650;77;20981;-80
2022/01/28 05:51:51;;;;;;;4.50;2.77;;;;;;;1.20;92.09;98118.63;2279308;77;20954;-79
2022/01/28 05:54:52;;;;;;;7.03;3.13;;;;;;;1.18;92.45;98099.70;2279363;77;21006;-79
2022/01/28 05:57:52;;;;;;;4.53;3.03;;;;;;;1.18;92.25;98121.55;2278308;77;20981;-79
2022/01/28 06:00:52;;;;;;;37.30;25.87;;;;;;;1.19;92.56;98114.31;2278785;77;21600;-79
2022/01/28 06:03:53;;;;;;;7.37;4.03;;;;;;;1.20;92.75;98122.90;2277626;78;22141;-79
2022/01/28 06:06:54;;;;;;;5.07;2.87;;;;;;;1.19;92.55;98125.87;2276711;77;20970;-81
2022/01/28 06:09:54;;;;;;;10.33;3.77;;;;;;;1.21;92.89;98115.66;2278658;77;20964;-78
2022/01/28 06:12:55;;;;;;;7.37;3.90;;;;;;;1.24;92.80;98128.62;2278945;77;20958;-78
2022/01/28 06:15:58;;;;;;;6.40;3.57;;;;;;;1.27;92.80;98132.59;2279920;78;21318;-79
2022/01/28 06:18:58;;;;;;;7.80;3.90;;;;;;;1.33;92.68;98134.09;2279946;77;20985;-77
2022/01/28 06:21:59;;;;;;;9.90;4.10;;;;;;;1.37;92.48;98133.80;2280454;77;20954;-78
2022/01/28 06:24:59;;;;;;;15.97;5.90;;;;;;;1.39;92.47;98130.46;2280177;77;20969;-79
2022/01/28 06:28:00;;;;;;;11.07;4.90;;;;;;;1.40;92.54;98134.78;2280755;78;20965;-79
2022/01/28 06:31:00;;;;;;;21.53;9.13;;;;;;;1.41;92.37;98144.66;2280142;77;20957;-80
2022/01/28 06:34:01;;;;;;;14.47;6.07;;;;;;;1.42;92.36;98152.43;2280089;77;21066;-79
2022/01/28 06:37:01;;;;;;;30.50;10.63;;;;;;;1.43;92.26;98150.73;2279908;77;21017;-79
2022/01/28 06:40:02;;;;;;;20.00;7.40;;;;;;;1.44;92.53;98155.06;2285642;77;21013;-80
2022/01/28 06:43:02;;;;;;;12.43;5.17;;;;;;;1.45;92.42;98156.81;2288750;78;20999;-78
2022/01/28 06:46:03;;;;;;;14.37;5.47;;;;;;;1.46;92.38;98156.86;2287626;78;21957;-79
2022/01/28 06:49:03;;;;;;;12.63;5.20;;;;;;;1.47;92.33;98165.45;2287288;78;21019;-79
2022/01/28 06:52:04;;;;;;;20.67;9.37;;;;;;;1.50;92.33;98157.85;2287597;78;20983;-79
2022/01/28 06:55:04;;;;;;;16.83;7.30;;;;;;;1.50;92.52;98155.28;2287836;78;20959;-78
2022/01/28 06:58:05;;;;;;;19.17;6.33;;;;;;;1.54;92.44;98164.86;2287574;78;21039;-79
2022/01/28 07:01:05;;;;;;;19.53;6.47;;;;;;;1.56;92.47;98164.50;2288256;78;21221;-78
2022/01/28 07:04:06;;;;;;;14.03;4.93;;;;;;;1.60;92.40;98156.08;2289371;78;20988;-79
2022/01/28 07:07:06;;;;;;;14.33;6.57;;;;;;;1.63;92.14;98156.19;2289135;78;20947;-80
2022/01/28 07:10:07;;;;;;;12.27;5.17;;;;;;;1.64;92.23;98164.37;2288649;78;21437;-79
2022/01/28 07:13:07;;;;;;;18.53;6.53;;;;;;;1.64;92.10;98177.23;2288193;78;21978;-76
2022/01/28 07:16:08;;;;;;;13.67;6.30;;;;;;;1.63;92.25;98165.59;2289848;78;21878;-79
2022/01/28 07:19:10;;;;;;;16.93;6.23;;;;;;;1.64;92.42;98165.66;2264853;78;21062;-80
2022/01/28 07:22:11;;;;;;;16.47;6.23;;;;;;;1.64;92.32;98168.23;2289351;78;20952;-79
2022/01/28 07:25:11;;;;;;;22.47;7.20;;;;;;;1.65;92.42;98173.83;2288241;78;20955;-79
2022/01/28 07:28:12;;;;;;;12.20;5.43;;;;;;;1.68;92.27;98173.06;2289338;78;20976;-79
2022/01/28 07:31:14;;;;;;;14.70;5.97;;;;;;;1.69;92.20;98182.13;2288128;78;20975;-79
2022/01/28 07:34:15;;;;;;;15.43;5.10;;;;;;;1.70;92.18;98163.30;2288364;78;21078;-80
2022/01/28 07:37:16;;;;;;;11.43;4.57;;;;;;;1.69;92.07;98182.13;2288479;78;20952;-79
2022/01/28 07:40:16;;;;;;;15.27;5.60;;;;;;;1.68;91.98;98180.79;2289387;77;21667;-79
2022/01/28 07:43:17;;;;;;;13.00;5.70;;;;;;;1.68;92.18;98179.50;2289096;78;21433;-79
2022/01/28 07:46:17;;;;;;;14.17;5.53;;;;;;;1.67;92.10;98198.33;2288641;78;21922;-79
2022/01/28 07:49:18;;;;;;;19.20;8.83;;;;;;;1.67;91.97;98185.47;2288763;78;20966;-78
2022/01/28 07:52:18;;;;;;;16.80;8.80;;;;;;;1.68;92.19;98204.81;2289768;78;20951;-78
2022/01/28 07:55:18;;;;;;;20.03;6.90;;;;;;;1.68;92.04;98203.53;2288877;78;20986;-79
2022/01/28 07:58:19;;;;;;;15.73;5.40;;;;;;;1.70;92.03;98200.60;2289669;78;21000;-79
2022/01/28 08:01:19;;;;;;;13.53;5.83;;;;;;;1.72;91.99;98213.11;2288923;78;20978;-79
2022/01/28 08:04:20;;;;;;;15.80;6.17;;;;;;;1.74;91.83;98224.78;2289996;78;21035;-79
2022/01/28 08:07:22;;;;;;;15.67;5.30;;;;;;;1.75;91.80;98214.95;2288345;78;20948;-80
2022/01/28 08:10:22;;;;;;;17.57;6.80;;;;;;;1.74;91.78;98220.92;2287443;78;20975;-80
2022/01/28 08:13:23;;;;;;;12.83;6.47;;;;;;;1.73;92.25;98230.30;2289440;78;21294;-79
2022/01/28 08:16:23;;;;;;;12.80;4.30;;;;;;;1.73;92.42;98238.44;2289960;78;20992;-81
2022/01/28 08:19:24;;;;;;;13.67;5.03;;;;;;;1.74;92.15;98238.52;2289909;78;21050;-81
2022/01/28 08:22:24;;;;;;;16.47;6.67;;;;;;;1.75;91.86;98241.97;2290567;78;20939;-80
2022/01/28 08:25:25;;;;;;;9.57;4.43;;;;;;;1.75;91.82;98251.85;2289573;78;21331;-81
2022/01/28 08:28:25;;;;;;;12.87;5.53;;;;;;;1.75;91.62;98252.27;2289047;78;21377;-82
2022/01/28 08:31:26;;;;;;;13.80;5.07;;;;;;;1.73;91.63;98257.32;2289543;78;21411;-82
2022/01/28 08:34:26;;;;;;;11.77;4.90;;;;;;;1.73;91.81;98255.16;2290579;78;21453;-82
2022/01/28 08:37:27;;;;;;;13.03;5.33;;;;;;;1.71;91.93;98267.09;2289912;78;21133;-83
2022/01/28 08:40:27;;;;;;;14.40;5.90;;;;;;;1.69;91.80;98276.04;2284075;78;21028;-85
2022/01/28 08:43:28;;;;;;;10.47;5.50;;;;;;;1.66;91.87;98293.93;2280436;77;21391;-82
2022/01/28 08:46:28;;;;;;;15.33;5.80;;;;;;;1.60;92.07;98287.27;2280288;77;21915;-80
2022/01/28 08:49:29;;;;;;;15.10;4.93;;;;;;;1.58;92.37;98298.79;2280510;77;21216;-81
2022/01/28 08:52:29;;;;;;;11.80;4.80;;;;;;;1.54;92.61;98301.19;2280767;77;20922;-81
2022/01/28 08:55:30;;;;;;;10.73;5.07;;;;;;;1.48;92.80;98318.95;2280439;78;20921;-82
2022/01/28 08:58:43;;;;;;;13.37;5.20;;;;;;;1.42;92.91;98315.73;2281185;77;20954;-83
2022/01/28 09:01:43;;;;;;;11.90;6.17;;;;;;;1.38;92.99;98323.27;2280331;78;20999;-82
2022/01/28 09:04:44;;;;;;;11.33;5.10;;;;;;;1.33;92.96;98332.09;2280495;78;21036;-81
2022/01/28 09:07:44;;;;;;;12.20;6.20;;;;;;;1.28;92.94;98335.77;2279306;77;20942;-81
2022/01/28 09:10:56;;;;;;;14.17;6.13;;;;;;;1.25;93.53;98341.20;2278565;78;20981;-81
2022/01/28 09:13:47;;;;;;;11.87;5.43;;;;;;;1.27;93.44;98351.13;2277344;78;21840;-81
2022/01/28 09:16:48;;;;;;;9.60;4.73;;;;;;;1.26;93.68;98343.83;2280183;77;20957;-81
2022/01/28 09:19:50;;;;;;;9.33;4.83;;;;;;;1.28;94.15;98369.19;2279018;78;21393;-82
2022/01/28 09:22:50;;;;;;;13.00;5.20;;;;;;;1.36;94.00;98362.19;2278527;78;20992;-81
2022/01/28 09:25:51;;;;;;;11.57;5.17;;;;;;;1.44;93.81;98363.37;2278771;77;20949;-81
2022/01/28 09:28:51;;;;;;;18.27;7.30;;;;;;;1.50;93.84;98362.33;2279504;77;21440;-82
2022/01/28 09:31:52;;;;;;;12.60;5.77;;;;;;;1.55;93.95;98373.27;2279080;77;20930;-81
2022/01/28 09:34:52;;;;;;;11.53;5.10;;;;;;;1.63;93.56;98376.14;2278268;77;21021;-81
2022/01/28 09:37:53;;;;;;;10.07;5.20;;;;;;;1.70;93.48;98370.41;2278778;77;20961;-82
2022/01/28 09:40:55;;;;;;;15.93;6.13;;;;;;;1.74;93.32;98380.05;2278743;77;21005;-82
2022/01/28 09:43:57;;;;;;;8.73;4.63;;;;;;;1.78;93.14;98383.20;2279511;78;21080;-82
2022/01/28 09:46:58;;;;;;;13.27;5.30;;;;;;;1.87;92.97;98394.27;2279257;78;21362;-81
2022/01/28 09:49:58;;;;;;;12.47;4.63;;;;;;;1.93;92.89;98392.33;2279397;78;21048;-82
2022/01/28 09:52:59;;;;;;;10.13;5.47;;;;;;;1.96;92.74;98397.19;2279331;77;20945;-82
2022/01/28 09:55:59;;;;;;;13.47;4.97;;;;;;;2.00;92.78;98405.49;2279900;77;20957;-83
2022/01/28 09:59:02;;;;;;;12.73;5.10;;;;;;;2.05;92.79;98403.09;2257411;78;21372;-83
2022/01/28 10:02:02;;;;;;;16.47;5.87;;;;;;;2.11;92.62;98409.77;2280196;77;20984;-82
2022/01/28 10:05:03;;;;;;;14.23;5.50;;;;;;;2.20;92.39;98413.97;2280405;77;20993;-82
2022/01/28 10:08:05;;;;;;;14.57;6.07;;;;;;;2.28;92.15;98413.84;2258360;78;20993;-82
2022/01/28 10:11:09;;;;;;;13.37;5.47;;;;;;;2.32;92.03;98413.55;2278712;77;21005;-80
2022/01/28 10:14:13;;;;;;;19.83;7.67;;;;;;;2.35;91.74;98422.68;2280289;78;21075;-80
2022/01/28 10:17:11;;;;;;;11.73;4.53;;;;;;;2.36;91.64;98427.89;2279161;77;21432;-81
2022/01/28 10:20:11;;;;;;;13.10;4.90;;;;;;;2.38;91.36;98429.23;2278620;78;20998;-83
2022/01/28 10:23:12;;;;;;;11.47;4.90;;;;;;;2.40;91.43;98427.18;2279112;77;20953;-82
2022/01/28 10:26:12;;;;;;;14.87;5.97;;;;;;;2.42;91.21;98450.02;2279516;77;20946;-82
2022/01/28 10:29:16;;;;;;;13.70;5.50;;;;;;;2.45;91.24;98450.12;2279494;77;20954;-82
2022/01/28 10:32:21;;;;;;;14.80;5.37;;;;;;;2.47;91.12;98446.31;2280045;78;21001;-78
2022/01/28 10:35:22;;;;;;;10.43;4.87;;;;;;;2.48;90.62;98445.50;2278659;78;21076;-81
2022/01/28 10:38:22;;;;;;;9.23;3.97;;;;;;;2.51;90.83;98442.62;2278893;77;20950;-82
2022/01/28 10:41:26;;;;;;;11.30;4.10;;;;;;;2.53;90.42;98450.00;2254638;77;21466;-81
2022/01/28 10:44:26;;;;;;;12.17;4.17;;;;;;;2.56;90.41;98447.53;2246267;79;21012;-81
2022/01/28 10:47:27;;;;;;;10.30;4.83;;;;;;;2.61;90.37;98461.91;2246506;79;20979;-81
2022/01/28 10:50:27;;;;;;;12.63;4.47;;;;;;;2.66;90.46;98464.66;2247153;78;21015;-82
2022/01/28 10:53:30;;;;;;;13.13;5.07;;;;;;;2.68;89.94;98467.75;2246452;78;21046;-82
2022/01/28 10:56:30;;;;;;;9.40;4.30;;;;;;;2.70;89.80;98467.80;2246993;79;21038;-82
2022/01/28 11:02:33;;;;;;;12.33;5.37;;;;;;;2.62;89.97;98489.44;2225070;79;20962;-81
2022/01/28 11:05:34;;;;;;;9.43;4.20;;;;;;;2.58;90.27;98487.94;2247289;78;21434;-83
2022/01/28 11:08:34;;;;;;;10.10;3.73;;;;;;;2.53;90.27;98491.22;2247914;78;20983;-82
2022/01/28 11:11:35;;;;;;;10.47;4.50;;;;;;;2.51;90.31;98499.71;2247723;78;20972;-82
2022/01/28 11:14:35;;;;;;;11.53;4.20;;;;;;;2.48;90.96;98517.22;2248826;78;20904;-82
2022/01/28 11:17:36;;;;;;;10.53;4.10;;;;;;;2.43;90.84;98514.87;2247724;78;21669;-82
2022/01/28 11:20:37;;;;;;;12.27;4.80;;;;;;;2.38;90.91;98524.13;2247571;78;21078;-82
2022/01/28 11:23:37;;;;;;;11.40;4.43;;;;;;;2.35;91.19;98528.28;2246791;78;20987;-81
2022/01/28 11:26:38;;;;;;;11.77;5.07;;;;;;;2.33;91.61;98533.78;2246781;79;20952;-82
2022/01/28 11:32:41;;;;;;;11.97;5.60;;;;;;;2.31;91.47;98547.02;2227017;79;21038;-82
2022/01/28 11:35:41;;;;;;;12.93;5.23;;;;;;;2.29;91.64;98546.95;2248414;78;20999;-82
2022/01/28 11:38:42;;;;;;;13.07;6.67;;;;;;;2.29;91.37;98548.65;2249078;79;21030;-83
2022/01/28 11:41:43;;;;;;;13.23;6.10;;;;;;;2.23;91.69;98557.89;2280710;77;21058;-84
2022/01/28 11:44:43;;;;;;;11.30;5.47;;;;;;;2.21;91.72;98563.39;2289116;78;20998;-81
2022/01/28 11:47:44;;;;;;;17.70;7.80;;;;;;;2.19;91.80;98578.31;2289535;77;21352;-79
2022/01/28 11:50:44;;;;;;;10.53;6.00;;;;;;;2.17;92.05;98551.20;2290032;78;20955;-83
2022/01/28 11:53:45;;;;;;;14.87;6.50;;;;;;;2.16;92.02;98558.47;2290390;78;20944;-83
2022/01/28 11:56:45;;;;;;;15.27;5.90;;;;;;;2.12;92.36;98569.87;2290196;78;21360;-83
2022/01/28 11:59:46;;;;;;;14.37;7.30;;;;;;;2.11;92.59;98569.39;2290979;78;21078;-82
2022/01/28 12:05:49;;;;;;;12.13;6.87;;;;;;;2.08;92.80;98586.01;2266095;78;21091;-81
2022/01/28 12:08:50;;;;;;;16.23;6.67;;;;;;;2.09;92.73;98577.06;2289602;78;21029;-81
2022/01/28 12:11:51;;;;;;;14.03;6.57;;;;;;;2.09;92.91;98604.09;2290483;78;20955;-82
2022/01/28 12:14:53;;;;;;;13.23;6.57;;;;;;;2.11;92.75;98602.46;2289952;78;20940;-82
2022/01/28 12:17:56;;;;;;;15.33;8.17;;;;;;;2.13;92.93;98595.67;2265344;78;20992;-82
2022/01/28 12:20:57;;;;;;;15.30;7.37;;;;;;;2.12;93.02;98600.36;2291292;78;21031;-80
2022/01/28 12:23:57;;;;;;;16.20;7.27;;;;;;;2.11;92.97;98615.34;2290645;78;20967;-82
2022/01/28 12:26:58;;;;;;;14.00;6.90;;;;;;;2.10;93.87;98619.13;2289857;78;21751;-84
2022/01/28 12:30:00;;;;;;;13.30;7.60;;;;;;;2.07;93.37;98607.42;2289833;78;20995;-81
2022/01/28 12:33:00;;;;;;;17.87;8.27;;;;;;;2.12;93.54;98616.22;2268559;78;21015;-81
2022/01/28 12:36:01;;;;;;;13.83;6.70;;;;;;;2.12;93.46;98620.95;2291584;78;21082;-82
2022/01/28 12:39:09;;;;;;;14.67;8.73;;;;;;;2.12;93.31;98636.41;2266989;78;20964;-82
2022/01/28 12:42:21;;;;;;;13.17;5.93;;;;;;;2.17;93.24;98635.31;2281387;77;21109;-82
2022/01/28 12:45:10;;;;;;;16.27;5.83;;;;;;;2.23;92.56;98631.70;2278336;78;21011;-82
2022/01/28 12:48:10;;;;;;;13.60;5.73;;;;;;;2.27;92.15;98628.84;2280306;77;21366;-82
2022/01/28 12:51:11;;;;;;;12.17;5.93;;;;;;;2.32;92.02;98645.36;2279575;77;20977;-82
2022/01/28 12:54:11;;;;;;;11.10;6.20;;;;;;;2.31;92.34;98651.33;2280680;77;20973;-81
2022/01/28 12:57:12;;;;;;;10.30;5.20;;;;;;;2.27;92.51;98652.02;2280650;77;20966;-83
2022/01/28 13:00:12;;;;;;;13.70;6.20;;;;;;;2.24;92.66;98666.94;2279642;77;20977;-82
2022/01/28 13:03:17;;;;;;;9.07;4.23;;;;;;;2.14;93.14;98672.11;2280440;77;21025;-82
2022/01/28 13:06:22;;;;;;;5.27;3.70;;;;;;;1.95;92.11;98677.70;2278612;78;21085;-82
2022/01/28 13:09:17;;;;;;;10.30;4.17;;;;;;;1.64;92.22;98678.92;2278646;78;21464;-82
2022/01/28 13:12:18;;;;;;;7.40;5.10;;;;;;;1.45;92.58;98700.78;2279422;78;20973;-81
2022/01/28 13:15:19;;;;;;;7.00;3.70;;;;;;;1.26;93.15;98710.23;2259087;78;20953;-81
2022/01/28 13:18:19;;;;;;;4.90;3.77;;;;;;;1.07;93.72;98718.30;2280583;77;20930;-83
2022/01/28 13:21:20;;;;;;;7.47;3.53;;;;;;;0.92;94.92;98724.48;2279698;78;21076;-82
2022/01/28 13:24:20;;;;;;;5.47;3.00;;;;;;;0.77;94.51;98722.44;2278803;77;21005;-83
2022/01/28 13:27:21;;;;;;;5.50;3.30;;;;;;;0.69;95.37;98734.44;2278605;77;20989;-83
2022/01/28 13:30:21;;;;;;;7.73;5.23;;;;;;;0.75;95.40;98717.63;2279932;77;20988;-84
2022/01/28 13:33:28;;;;;;;8.93;4.23;;;;;;;0.80;95.67;98749.56;2279760;77;21044;-83
2022/01/28 13:36:24;;;;;;;9.53;5.57;;;;;;;0.83;95.64;98733.41;2278053;78;21029;-83
2022/01/28 13:39:27;;;;;;;8.80;5.43;;;;;;;0.82;95.79;98738.08;2281184;77;21036;-81
2022/01/28 13:42:27;;;;;;;14.60;6.63;;;;;;;0.84;95.97;98746.74;2280479;78;21097;-82
2022/01/28 13:45:28;;;;;;;13.87;7.07;;;;;;;0.87;96.05;98749.48;2281935;77;20949;-81
2022/01/28 13:48:28;;;;;;;9.63;7.10;;;;;;;0.93;96.00;98749.78;2280495;77;20941;-82
2022/01/28 13:51:29;;;;;;;11.57;6.47;;;;;;;0.99;95.87;98755.62;2280295;78;20961;-80
2022/01/28 13:54:29;;;;;;;14.93;7.07;;;;;;;1.06;95.99;98760.25;2280913;77;20965;-79
2022/01/28 13:57:30;;;;;;;9.83;6.70;;;;;;;1.20;95.91;98759.20;2279641;77;21206;-78
2022/01/28 14:00:30;;;;;;;12.50;6.70;;;;;;;1.35;95.76;98759.04;2279472;77;21013;-78
2022/01/28 14:03:31;;;;;;;15.47;6.50;;;;;;;1.43;95.62;98762.44;2279461;77;20981;-80
2022/01/28 14:06:31;;;;;;;14.20;7.17;;;;;;;1.59;94.93;98769.17;2280365;77;21016;-78
2022/01/28 14:09:32;;;;;;;16.90;6.10;;;;;;;1.66;94.30;98787.05;2280156;78;20890;-80
2022/01/28 14:15:49;;;;;;;12.80;6.50;;;;;;;1.82;93.72;98787.84;2259896;78;20990;-80
2022/01/28 14:18:43;;;;;;;14.37;6.60;;;;;;;1.86;93.82;98786.30;2279461;78;21339;-79
2022/01/28 14:21:43;;;;;;;15.67;6.77;;;;;;;1.90;93.28;98789.07;2280699;77;20998;-80
2022/01/28 14:24:44;;;;;;;8.93;5.93;;;;;;;1.94;93.41;98805.94;2280675;77;20965;-79
2022/01/28 14:27:59;;;;;;;13.57;5.07;;;;;;;2.00;93.12;98800.66;2279885;77;21005;-79
2022/01/28 14:30:56;;;;;;;10.80;5.67;;;;;;;2.07;92.17;98805.67;2277622;78;21432;-80
2022/01/28 14:33:50;;;;;;;11.47;4.60;;;;;;;2.04;92.36;98809.40;2277627;77;21069;-80
2022/01/28 14:36:50;;;;;;;7.87;4.83;;;;;;;1.99;92.05;98809.60;2280621;77;21478;-81
2022/01/28 14:39:53;;;;;;;11.27;4.30;;;;;;;2.00;91.86;98819.09;2257139;78;21028;-79
2022/01/28 14:42:53;;;;;;;12.87;5.37;;;;;;;2.03;91.24;98839.82;2251214;77;20997;-81
2022/01/28 14:45:53;;;;;;;9.60;4.87;;;;;;;2.03;90.69;98877.16;2249049;78;20979;-84
2022/01/28 14:48:54;;;;;;;12.87;5.47;;;;;;;2.03;90.39;98873.30;2248087;78;20940;-80
2022/01/28 14:51:58;;;;;;;10.33;5.07;;;;;;;2.00;91.00;98882.16;2248985;78;20998;-80
2022/01/28 14:54:57;;;;;;;8.20;4.93;;;;;;;1.99;90.49;98894.16;2248478;79;21011;-81
2022/01/28 14:57:57;;;;;;;5.40;3.37;;;;;;;1.97;90.46;98896.18;2248203;78;20901;-81
2022/01/28 15:00:58;;;;;;;10.40;4.07;;;;;;;1.88;90.05;98924.55;2247177;78;20991;-83
2022/01/28 15:03:58;;;;;;;10.27;5.30;;;;;;;1.72;91.12;98927.17;2247440;78;20983;-82
2022/01/28 15:06:59;;;;;;;8.53;3.80;;;;;;;1.56;91.98;98934.97;2248560;79;21011;-82
2022/01/28 15:10:00;;;;;;;7.17;4.20;;;;;;;1.41;92.66;98920.95;2249829;79;20916;-82
2022/01/28 15:13:00;;;;;;;5.93;3.60;;;;;;;1.33;93.28;98931.67;2249482;79;21019;-80
2022/01/28 15:16:01;;;;;;;5.43;3.13;;;;;;;1.28;93.14;98937.48;2249212;79;21065;-81
2022/01/28 15:19:01;;;;;;;7.30;3.40;;;;;;;1.25;92.40;98938.61;2247920;78;21038;-82
2022/01/28 15:22:03;;;;;;;5.00;3.10;;;;;;;1.22;92.58;98949.14;2225258;79;21211;-81
2022/01/28 15:25:04;;;;;;;4.10;2.90;;;;;;;1.20;92.69;98959.36;2247528;78;21402;-82
2022/01/28 15:28:05;;;;;;;5.77;3.80;;;;;;;1.18;92.23;98951.97;2247800;78;21007;-81
2022/01/28 15:37:33;;;;;;;7.87;4.40;;;;;;;1.20;91.84;98964.91;2227657;79;20987;-81
2022/01/28 15:40:33;;;;;;;10.30;5.30;;;;;;;1.19;91.94;98970.45;2251216;77;20940;-80
2022/01/28 15:43:34;;;;;;;7.50;4.33;;;;;;;1.20;92.20;98974.78;2280154;78;20922;-81
2022/01/28 15:46:36;;;;;;;6.30;4.07;;;;;;;1.23;92.02;98974.94;2279860;78;20945;-81
2022/01/28 15:49:36;;;;;;;7.77;4.77;;;;;;;1.25;91.89;98982.33;2279871;77;21357;-81
2022/01/28 15:52:37;;;;;;;9.07;4.57;;;;;;;1.23;91.95;98985.23;2280353;77;21028;-81